Time;durP1;ratioP1;P1;durP2;ratioP2;P2;SDS_P1;SDS_P2;PMS_P1;PMS_P2;Temp;Humidity;BMP_temperature;BMP_pressure;BME280_temperature;BME280_humidity;BME280_pressure;Samples;Min_cycle;Max_cycle;Signal;HPM_P1;HPM_P2
2020/12/14 00:01:55;;;;;;;20.83;9.77;;;-2.50;80.00;;;;;;5042411;28;20391;-79
2020/12/14 00:04:21;;;;;;;16.70;8.38;;;-2.60;80.10;;;;;;5032715;28;20072;-81
2020/12/14 00:06:55;;;;;;;16.02;10.13;;;-2.60;80.30;;;;;;5030953;28;20044;-81
2020/12/14 00:09:23;;;;;;;17.02;8.05;;;-2.50;80.30;;;;;;5033237;28;20087;-82
2020/12/14 00:11:53;;;;;;;15.63;8.52;;;-2.50;80.10;;;;;;5032141;28;20602;-82
2020/12/14 00:14:21;;;;;;;13.93;7.43;;;-2.50;80.60;;;;;;5032786;28;20033;-84
2020/12/14 00:16:47;;;;;;;17.75;8.48;;;-2.50;80.00;;;;;;5031534;28;20014;-84
2020/12/14 00:19:14;;;;;;;17.05;8.38;;;-2.50;79.90;;;;;;5033225;28;20025;-86
2020/12/14 00:21:42;;;;;;;14.63;7.63;;;-2.50;79.80;;;;;;5033288;28;20037;-85
2020/12/14 00:24:10;;;;;;;17.40;7.43;;;-2.50;79.80;;;;;;5033911;28;20025;-84
2020/12/14 00:26:38;;;;;;;16.67;8.65;;;-2.60;79.90;;;;;;5033188;28;20021;-85
2020/12/14 00:29:04;;;;;;;15.80;7.88;;;-2.70;80.00;;;;;;5033131;28;20041;-85
2020/12/14 00:31:30;;;;;;;17.42;8.13;;;-2.60;80.20;;;;;;5032649;28;20430;-85
2020/12/14 00:33:58;;;;;;;15.70;7.10;;;-2.60;80.00;;;;;;5033741;28;20018;-86
2020/12/14 00:36:26;;;;;;;16.10;8.50;;;-2.60;80.00;;;;;;5034230;28;20029;-86
2020/12/14 00:38:52;;;;;;;20.15;8.35;;;-2.50;80.10;;;;;;5034464;28;20018;-86
2020/12/14 00:41:22;;;;;;;13.82;7.63;;;-2.50;79.70;;;;;;5026396;28;20095;-87
2020/12/14 00:43:49;;;;;;;14.52;7.95;;;-2.60;79.40;;;;;;5024586;28;20383;-87
2020/12/14 00:46:17;;;;;;;17.13;9.15;;;-2.60;79.70;;;;;;5040380;28;20029;-86
2020/12/14 00:48:44;;;;;;;16.45;8.43;;;-2.70;79.50;;;;;;5040426;28;20016;-85
2020/12/14 00:51:10;;;;;;;14.23;7.47;;;-2.70;79.60;;;;;;5039635;28;20462;-86
2020/12/14 00:53:39;;;;;;;14.25;7.65;;;-2.80;79.50;;;;;;5022114;28;20170;-86
2020/12/14 00:56:07;;;;;;;13.52;6.15;;;-2.70;79.70;;;;;;5051165;28;20026;-87
2020/12/14 00:58:34;;;;;;;15.30;7.65;;;-2.70;79.50;;;;;;5052046;28;20409;-86
2020/12/14 01:01:02;;;;;;;13.35;8.15;;;-2.70;79.50;;;;;;5037016;28;20052;-86
2020/12/14 01:03:31;;;;;;;12.65;7.20;;;-2.80;79.50;;;;;;5036228;28;20030;-87
2020/12/14 01:06:02;;;;;;;13.57;7.35;;;-2.70;79.60;;;;;;5036443;28;20025;-86
2020/12/14 01:08:28;;;;;;;14.85;7.95;;;-2.70;79.60;;;;;;5024213;28;20506;-87
2020/12/14 01:10:55;;;;;;;11.15;6.25;;;-2.70;79.50;;;;;;5036524;28;20034;-87
2020/12/14 01:13:21;;;;;;;;;;;-2.60;79.40;;;;;;5024262;28;20025;-84
2020/12/14 01:15:49;;;;;;;12.70;6.80;;;-2.60;79.40;;;;;;5046611;28;19916;-88
2020/12/14 01:18:17;;;;;;;13.77;7.88;;;-2.60;79.20;;;;;;5054531;28;20021;-83
2020/12/14 01:20:49;;;;;;;10.82;7.45;;;-2.60;79.20;;;;;;5031260;28;20029;-86
2020/12/14 01:23:14;;;;;;;13.40;7.18;;;-2.70;79.10;;;;;;5036493;28;20021;-85
2020/12/14 01:25:42;;;;;;;11.07;8.60;;;-2.60;79.20;;;;;;5032319;28;20028;-85
2020/12/14 01:28:10;;;;;;;13.27;6.47;;;-2.60;79.10;;;;;;5036873;28;20030;-84
2020/12/14 01:30:38;;;;;;;17.13;7.55;;;-2.60;78.80;;;;;;5039101;28;20475;-83
2020/12/14 01:33:05;;;;;;;9.55;5.63;;;-2.60;78.80;;;;;;5032939;28;20053;-85
2020/12/14 01:35:31;;;;;;;;;;;-2.70;79.10;;;;;;5042083;28;20030;-83
2020/12/14 01:37:57;;;;;;;14.68;7.05;;;-2.70;78.80;;;;;;5043345;28;19912;-84
2020/12/14 01:40:23;;;;;;;13.65;8.00;;;-2.70;78.70;;;;;;5038159;28;20475;-83
2020/12/14 01:42:51;;;;;;;12.07;6.47;;;-2.70;78.80;;;;;;5036921;28;20021;-84
2020/12/14 01:45:19;;;;;;;12.15;7.28;;;-2.70;78.90;;;;;;5030254;28;20017;-85
2020/12/14 01:47:49;;;;;;;16.40;7.85;;;-2.70;78.60;;;;;;5034966;28;20021;-85
2020/12/14 01:50:20;;;;;;;16.08;9.35;;;-2.80;78.50;;;;;;5028945;28;20040;-84
2020/12/14 01:52:48;;;;;;;14.63;7.60;;;-2.80;78.50;;;;;;5018634;28;20044;-83
2020/12/14 01:55:20;;;;;;;10.50;5.57;;;-2.80;78.70;;;;;;5036608;28;20021;-84
2020/12/14 01:57:46;;;;;;;10.85;6.05;;;-2.80;78.80;;;;;;5057060;28;20036;-85
2020/12/14 02:00:14;;;;;;;13.57;7.13;;;-2.80;78.70;;;;;;5038639;28;20021;-85
2020/12/14 02:02:40;;;;;;;13.27;6.30;;;-2.70;78.70;;;;;;5035372;28;20025;-84
2020/12/14 02:05:07;;;;;;;10.13;5.90;;;-2.70;78.70;;;;;;5035332;28;20029;-85
2020/12/14 02:07:34;;;;;;;15.27;7.28;;;-2.70;78.60;;;;;;5018143;28;20025;-85
2020/12/14 02:10:00;;;;;;;11.57;6.90;;;-2.70;78.40;;;;;;5017251;28;20030;-85
2020/12/14 02:12:28;;;;;;;13.70;6.85;;;-2.80;78.30;;;;;;5035168;28;20022;-84
2020/12/14 02:14:59;;;;;;;12.77;7.47;;;-2.80;78.40;;;;;;5036480;28;20021;-84
2020/12/14 02:17:27;;;;;;;11.55;6.70;;;-2.70;78.40;;;;;;5036489;28;20045;-84
2020/12/14 02:19:54;;;;;;;12.88;7.63;;;-2.70;78.40;;;;;;5035982;28;20025;-84
2020/12/14 02:22:21;;;;;;;;;;;-2.70;78.50;;;;;;5036298;28;20179;-85
2020/12/14 02:24:57;;;;;;;15.57;7.50;;;-2.60;78.70;;;;;;5036575;28;19912;-86
2020/12/14 02:27:28;;;;;;;11.80;7.05;;;-2.60;78.20;;;;;;5039019;28;20044;-85
2020/12/14 02:29:56;;;;;;;13.27;6.70;;;-2.70;78.20;;;;;;5026651;28;20030;-86
2020/12/14 02:32:26;;;;;;;11.32;6.78;;;-2.70;78.30;;;;;;5026996;28;20446;-86
2020/12/14 02:34:53;;;;;;;11.30;6.43;;;-2.80;78.40;;;;;;5037818;28;20040;-86
2020/12/14 02:37:25;;;;;;;11.90;8.10;;;-2.80;78.50;;;;;;5036066;28;20018;-85
2020/12/14 02:39:53;;;;;;;10.20;5.82;;;-2.90;78.30;;;;;;5039210;28;20025;-83
2020/12/14 02:42:21;;;;;;;11.90;6.70;;;-2.90;78.60;;;;;;5048106;28;20005;-85
2020/12/14 02:44:49;;;;;;;12.35;7.75;;;-2.90;78.70;;;;;;5037956;28;20017;-84
2020/12/14 02:47:24;;;;;;;14.98;6.97;;;-2.80;78.70;;;;;;5029790;28;20079;-86
2020/12/14 02:49:50;;;;;;;11.60;7.03;;;-2.80;78.50;;;;;;5037636;28;20391;-84
2020/12/14 02:52:17;;;;;;;10.63;6.32;;;-2.80;78.40;;;;;;5020548;28;20025;-85
2020/12/14 02:54:44;;;;;;;10.40;6.03;;;-2.80;78.70;;;;;;5044468;28;20030;-83
2020/12/14 02:57:12;;;;;;;11.40;6.38;;;-2.80;78.70;;;;;;5025980;28;20037;-84
2020/12/14 02:59:39;;;;;;;12.90;6.35;;;-2.70;78.60;;;;;;5049631;28;20022;-85
2020/12/14 03:02:06;;;;;;;12.55;6.25;;;-2.70;78.30;;;;;;5101311;22;20013;-86
2020/12/14 03:04:37;;;;;;;12.15;6.45;;;-2.80;78.30;;;;;;5058866;28;20395;-84
2020/12/14 03:07:21;;;;;;;13.85;7.05;;;-2.80;78.50;;;;;;5058601;28;20100;-85
2020/12/14 03:09:51;;;;;;;14.60;7.15;;;-2.80;78.60;;;;;;5047584;28;20090;-84
2020/12/14 03:12:26;;;;;;;14.85;8.13;;;-2.70;78.50;;;;;;5048303;28;20029;-87
2020/12/14 03:14:57;;;;;;;10.85;6.80;;;-2.70;78.50;;;;;;5037435;28;20053;-84
2020/12/14 03:17:23;;;;;;;13.13;7.88;;;-2.60;78.50;;;;;;5044750;28;20025;-86
2020/12/14 03:19:49;;;;;;;11.07;7.05;;;-2.70;78.50;;;;;;5048268;28;20025;-86
2020/12/14 03:22:15;;;;;;;13.25;7.55;;;-2.70;78.60;;;;;;5033789;28;20433;-84
2020/12/14 03:24:40;;;;;;;12.02;8.10;;;-2.60;78.80;;;;;;5034107;28;20025;-82
2020/12/14 03:27:07;;;;;;;14.43;7.15;;;-2.60;78.80;;;;;;5037712;28;20028;-84
2020/12/14 03:29:36;;;;;;;11.43;6.72;;;-2.50;78.80;;;;;;5040729;28;20022;-83
2020/12/14 03:32:02;;;;;;;14.65;8.38;;;-2.50;78.60;;;;;;5034942;28;20555;-84
2020/12/14 03:34:28;;;;;;;14.40;6.78;;;-2.50;78.70;;;;;;5041972;28;20029;-84
2020/12/14 03:37:02;;;;;;;10.48;5.95;;;-2.50;78.50;;;;;;5033968;28;20427;-81
2020/12/14 03:39:28;;;;;;;14.57;7.18;;;-2.50;78.50;;;;;;5033517;28;20028;-84
2020/12/14 03:41:54;;;;;;;10.55;6.90;;;-2.50;78.40;;;;;;5033130;28;20112;-83
2020/12/14 03:44:20;;;;;;;12.27;6.97;;;-2.60;78.30;;;;;;5054567;28;20048;-82
2020/12/14 03:46:46;;;;;;;12.00;7.18;;;-2.60;78.70;;;;;;5053549;28;20468;-83
2020/12/14 03:49:12;;;;;;;12.43;8.32;;;-2.50;78.90;;;;;;5051692;28;20032;-83
2020/12/14 03:51:38;;;;;;;12.68;7.10;;;-2.50;78.70;;;;;;5042133;28;20184;-84
2020/12/14 03:54:04;;;;;;;12.70;6.78;;;-2.50;78.80;;;;;;5033168;28;20105;-84
2020/12/14 03:56:30;;;;;;;14.63;7.18;;;-2.40;78.70;;;;;;5033367;28;20100;-83
2020/12/14 03:58:55;;;;;;;10.63;6.20;;;-2.40;78.70;;;;;;5035066;28;20026;-84
2020/12/14 04:01:24;;;;;;;15.18;7.13;;;-2.40;78.50;;;;;;5038847;28;20025;-83
2020/12/14 04:03:51;;;;;;;12.82;8.10;;;-2.50;78.70;;;;;;5041353;28;20044;-85
2020/12/14 04:06:22;;;;;;;10.70;6.25;;;-2.50;78.90;;;;;;5034681;28;20352;-83
2020/12/14 04:08:48;;;;;;;13.98;7.63;;;-2.50;78.80;;;;;;5037543;28;20053;-83
2020/12/14 04:11:15;;;;;;;12.68;7.63;;;-2.50;78.90;;;;;;5044034;28;20108;-82
2020/12/14 04:13:41;;;;;;;11.95;6.65;;;-2.60;78.70;;;;;;5050565;28;20023;-84
2020/12/14 04:16:08;;;;;;;13.38;8.13;;;-2.60;79.10;;;;;;5064032;28;20033;-84
2020/12/14 04:18:34;;;;;;;13.87;7.80;;;-2.60;79.30;;;;;;5058801;28;20023;-84
2020/12/14 04:21:00;;;;;;;14.25;9.35;;;-2.60;79.20;;;;;;5048184;28;20100;-84
2020/12/14 04:23:26;;;;;;;14.65;7.15;;;-2.60;79.30;;;;;;5051722;28;20148;-83
2020/12/14 04:25:55;;;;;;;17.00;9.05;;;-2.60;79.40;;;;;;5051183;28;20025;-84
2020/12/14 04:28:21;;;;;;;12.80;7.88;;;-2.50;79.50;;;;;;5051411;28;20021;-83
2020/12/14 04:30:47;;;;;;;14.10;7.78;;;-2.50;79.50;;;;;;5043479;28;20029;-85
2020/12/14 04:33:13;;;;;;;17.23;9.27;;;-2.40;79.40;;;;;;5039928;28;20026;-83
2020/12/14 04:35:39;;;;;;;14.00;8.40;;;-2.50;79.30;;;;;;5052097;28;20053;-83
2020/12/14 04:38:05;;;;;;;14.75;7.65;;;-2.40;79.40;;;;;;5049756;28;20089;-83
2020/12/14 04:40:31;;;;;;;14.13;8.15;;;-2.40;79.20;;;;;;5066264;28;20027;-84
2020/12/14 04:42:58;;;;;;;12.70;8.77;;;-2.50;79.10;;;;;;5048996;28;20387;-82
2020/12/14 04:45:28;;;;;;;16.10;9.48;;;-2.50;78.90;;;;;;5057823;28;20029;-85
2020/12/14 04:47:58;;;;;;;16.50;9.20;;;-2.50;79.20;;;;;;5063828;28;20040;-84
2020/12/14 04:50:27;;;;;;;13.45;8.15;;;-2.60;79.10;;;;;;5057824;28;20041;-87
2020/12/14 04:52:54;;;;;;;12.50;8.00;;;-2.60;79.30;;;;;;5036934;28;20109;-85
2020/12/14 04:55:23;;;;;;;15.82;9.18;;;-2.60;79.40;;;;;;5037643;28;20033;-84
2020/12/14 04:57:50;;;;;;;13.70;7.32;;;-2.60;79.50;;;;;;5052612;28;20083;-84
2020/12/14 05:00:17;;;;;;;14.30;8.80;;;-2.60;79.30;;;;;;5046919;28;20355;-84
2020/12/14 05:03:02;;;;;;;16.02;9.55;;;-2.60;79.30;;;;;;5056769;28;20049;-83
2020/12/14 05:05:34;;;;;;;17.30;10.05;;;-2.60;79.40;;;;;;5056226;28;20044;-82
2020/12/14 05:08:04;;;;;;;15.57;7.18;;;-2.60;79.40;;;;;;5035778;28;20018;-84
2020/12/14 05:10:32;;;;;;;18.38;8.80;;;-2.60;79.30;;;;;;5043458;28;20442;-83
2020/12/14 05:12:57;;;;;;;15.45;7.35;;;-2.50;79.20;;;;;;5057056;28;20025;-82
2020/12/14 05:15:28;;;;;;;21.45;9.63;;;-2.70;78.80;;;;;;5056908;28;20390;-83
2020/12/14 05:18:14;;;;;;;16.92;8.82;;;-2.70;79.20;;;;;;5056313;28;20043;-84
2020/12/14 05:20:41;;;;;;;18.77;8.18;;;-2.70;79.40;;;;;;5048110;28;20029;-82
2020/12/14 05:23:28;;;;;;;15.13;9.40;;;-2.70;79.30;;;;;;5036922;28;20045;-82
2020/12/14 05:26:08;;;;;;;12.73;7.10;;;-2.70;79.30;;;;;;5032767;28;20029;-84
2020/12/14 05:28:35;;;;;;;16.63;8.60;;;-2.70;79.20;;;;;;5039199;28;20029;-84
2020/12/14 05:31:00;;;;;;;12.73;7.60;;;-2.70;79.20;;;;;;5036179;28;20026;-84
2020/12/14 05:33:29;;;;;;;17.83;8.43;;;-2.70;79.40;;;;;;5035874;28;20034;-82
2020/12/14 05:35:55;;;;;;;12.57;7.82;;;-2.70;79.40;;;;;;5036530;28;20388;-83
2020/12/14 05:38:23;;;;;;;15.13;8.93;;;-2.70;79.40;;;;;;5036069;28;20021;-82
2020/12/14 05:40:52;;;;;;;20.95;10.60;;;-2.80;79.40;;;;;;5035682;28;20043;-84
2020/12/14 05:43:20;;;;;;;18.88;9.68;;;-2.90;79.70;;;;;;5035942;28;20108;-84
2020/12/14 05:45:53;;;;;;;21.30;9.35;;;-2.80;80.00;;;;;;5035632;28;20025;-83
2020/12/14 05:48:34;;;;;;;14.48;8.70;;;-2.70;79.90;;;;;;5036340;28;20025;-84
2020/12/14 05:51:02;;;;;;;19.83;11.02;;;-2.60;79.80;;;;;;5035029;28;20034;-85
2020/12/14 05:53:41;;;;;;;17.38;8.68;;;-2.70;79.50;;;;;;5045760;28;20017;-84
2020/12/14 05:56:08;;;;;;;18.45;9.35;;;-2.80;79.40;;;;;;5035750;28;20175;-83
2020/12/14 05:58:37;;;;;;;;;;;-2.80;79.40;;;;;;5036121;28;20022;-85
2020/12/14 06:01:08;;;;;;;19.42;10.73;;;-2.80;79.60;;;;;;5033952;28;19904;-84
2020/12/14 06:03:35;;;;;;;13.10;8.80;;;-2.80;79.40;;;;;;5036747;28;20040;-83
2020/12/14 06:06:02;;;;;;;16.77;8.20;;;-2.70;79.60;;;;;;5037953;28;20025;-85
2020/12/14 06:08:47;;;;;;;18.92;10.15;;;-2.70;79.60;;;;;;5035173;28;20026;-84
2020/12/14 06:11:13;;;;;;;13.50;8.05;;;-2.70;79.40;;;;;;5038834;28;20490;-84
2020/12/14 06:13:52;;;;;;;15.10;8.35;;;-2.70;79.90;;;;;;5041604;28;20421;-84
2020/12/14 06:16:20;;;;;;;18.50;8.85;;;-2.70;79.20;;;;;;5055467;28;20075;-85
2020/12/14 06:18:46;;;;;;;;;;;-2.70;79.20;;;;;;5047885;28;20049;-84
2020/12/14 06:21:16;;;;;;;15.57;9.05;;;-2.80;79.10;;;;;;5044160;28;19912;-85
2020/12/14 06:23:45;;;;;;;19.48;9.52;;;-2.90;79.00;;;;;;5042134;28;20570;-85
2020/12/14 06:26:10;;;;;;;19.75;11.15;;;-2.90;79.30;;;;;;5044860;28;20021;-86
2020/12/14 06:28:37;;;;;;;23.85;11.10;;;-2.90;79.30;;;;;;5054263;28;20496;-84
2020/12/14 06:31:03;;;;;;;20.42;12.15;;;-2.90;79.90;;;;;;5059200;28;20025;-84
2020/12/14 06:33:38;;;;;;;15.07;8.75;;;-2.90;79.30;;;;;;5069509;28;20028;-83
2020/12/14 06:36:24;;;;;;;20.05;9.18;;;-2.80;79.30;;;;;;5068838;28;20067;-84
2020/12/14 06:38:53;;;;;;;23.08;11.27;;;-2.70;79.10;;;;;;5039269;28;20017;-83
2020/12/14 06:41:20;;;;;;;21.23;12.27;;;-2.70;78.60;;;;;;5036656;28;20039;-83
2020/12/14 06:44:04;;;;;;;24.15;11.07;;;-2.80;78.30;;;;;;5047574;28;20537;-83
2020/12/14 06:46:33;;;;;;;13.98;8.02;;;-2.80;78.40;;;;;;5042093;28;20131;-83
2020/12/14 06:49:00;;;;;;;29.20;11.30;;;-2.90;77.80;;;;;;5041178;28;20031;-83
2020/12/14 06:51:46;;;;;;;17.50;10.82;;;-2.90;78.00;;;;;;5046076;28;20061;-84
2020/12/14 06:54:33;;;;;;;20.80;10.55;;;-3.00;77.70;;;;;;5040034;28;20028;-84
2020/12/14 06:57:02;;;;;;;26.10;11.88;;;-3.10;77.80;;;;;;5045421;28;20025;-84
2020/12/14 06:59:29;;;;;;;25.60;12.27;;;-3.10;78.30;;;;;;5039788;28;20022;-81
2020/12/14 07:02:03;;;;;;;24.15;12.18;;;-3.00;78.50;;;;;;5034572;28;20072;-81
2020/12/14 07:04:29;;;;;;;20.63;10.50;;;-3.00;78.60;;;;;;5035100;28;20053;-79
2020/12/14 07:07:15;;;;;;;21.05;11.63;;;-3.00;78.60;;;;;;5038949;28;20021;-80
2020/12/14 07:09:41;;;;;;;26.27;13.75;;;-2.90;78.60;;;;;;5040998;28;20037;-82
2020/12/14 07:12:10;;;;;;;20.88;12.55;;;-2.90;78.60;;;;;;5050746;28;20448;-84
2020/12/14 07:14:45;;;;;;;25.08;11.65;;;-2.90;78.70;;;;;;5050724;28;20033;-84
2020/12/14 07:17:21;;;;;;;20.08;12.15;;;-2.90;78.50;;;;;;5045961;28;20018;-80
2020/12/14 07:19:49;;;;;;;27.10;10.77;;;-2.90;78.50;;;;;;5033141;28;20104;-81
2020/12/14 07:22:18;;;;;;;21.08;10.65;;;-2.90;78.70;;;;;;5033268;28;20021;-81
2020/12/14 07:24:49;;;;;;;20.75;11.93;;;-2.90;78.50;;;;;;5041285;28;20067;-82
2020/12/14 07:27:14;;;;;;;18.48;11.05;;;-2.90;78.50;;;;;;5034329;28;20109;-80
2020/12/14 07:29:40;;;;;;;27.02;11.38;;;-2.90;78.60;;;;;;5041910;28;20057;-80
2020/12/14 07:32:06;;;;;;;20.25;10.73;;;-2.90;78.70;;;;;;5039294;28;20029;-84
2020/12/14 07:34:32;;;;;;;22.80;13.13;;;-2.90;78.80;;;;;;5037800;28;20368;-81
2020/12/14 07:36:58;;;;;;;20.98;11.80;;;-2.90;78.80;;;;;;5041715;28;20404;-83
2020/12/14 07:39:25;;;;;;;23.48;11.70;;;-2.80;78.60;;;;;;5033534;28;20021;-82
2020/12/14 07:41:50;;;;;;;22.92;11.43;;;-2.90;78.40;;;;;;5040112;28;20030;-82
2020/12/14 07:44:16;;;;;;;23.23;11.57;;;-2.90;78.50;;;;;;5037369;28;20024;-80
2020/12/14 07:46:43;;;;;;;22.40;10.93;;;-3.10;78.50;;;;;;5042063;28;20030;-80
2020/12/14 07:49:11;;;;;;;23.13;12.00;;;-3.20;78.90;;;;;;5034207;28;20043;-79
2020/12/14 07:51:45;;;;;;;21.60;12.50;;;-3.20;79.20;;;;;;5033986;28;20064;-80
2020/12/14 07:54:13;;;;;;;24.85;11.00;;;-3.30;79.10;;;;;;5038220;28;20096;-80
2020/12/14 07:56:45;;;;;;;23.95;12.80;;;-3.30;79.20;;;;;;5042789;28;20028;-81
2020/12/14 07:59:27;;;;;;;22.83;10.98;;;-3.30;79.50;;;;;;5032662;28;20394;-80
2020/12/14 08:01:54;;;;;;;24.17;13.00;;;-3.20;79.60;;;;;;5044812;28;20074;-80
2020/12/14 08:04:34;;;;;;;26.65;14.30;;;-3.20;79.50;;;;;;5040252;28;20048;-81
2020/12/14 08:07:00;;;;;;;30.08;13.45;;;-3.10;79.60;;;;;;5054709;28;20387;-82
2020/12/14 08:09:37;;;;;;;23.50;11.07;;;-3.10;79.30;;;;;;5045016;28;20154;-79
2020/12/14 08:12:04;;;;;;;19.98;11.65;;;-3.10;79.30;;;;;;5039691;28;20140;-78
2020/12/14 08:14:31;;;;;;;21.02;10.73;;;-3.00;79.20;;;;;;5050568;28;20025;-82
2020/12/14 08:16:57;;;;;;;22.13;11.73;;;-3.20;79.10;;;;;;5033096;28;20025;-82
2020/12/14 08:19:23;;;;;;;28.98;13.82;;;-3.20;79.40;;;;;;5049095;28;20033;-79
2020/12/14 08:22:04;;;;;;;30.70;13.20;;;-3.20;79.50;;;;;;5038547;28;20089;-80
2020/12/14 08:24:30;;;;;;;24.60;12.35;;;-3.20;79.30;;;;;;5046976;28;20482;-79
2020/12/14 08:27:09;;;;;;;25.90;12.13;;;-3.20;79.20;;;;;;5035179;28;20029;-79
2020/12/14 08:29:36;;;;;;;24.73;12.05;;;-3.20;78.90;;;;;;5032597;28;20352;-79
2020/12/14 08:32:03;;;;;;;22.25;13.07;;;-3.20;79.10;;;;;;5048571;28;20018;-80
2020/12/14 08:34:30;;;;;;;31.87;13.60;;;-3.30;79.00;;;;;;5039656;28;20079;-81
2020/12/14 08:36:56;;;;;;;20.13;12.13;;;-3.30;78.90;;;;;;5050016;28;20124;-82
2020/12/14 08:39:22;;;;;;;26.90;13.30;;;-3.30;78.90;;;;;;5039947;28;20110;-81
2020/12/14 08:42:05;;;;;;;23.27;13.65;;;-3.30;79.10;;;;;;5037616;28;20044;-79
2020/12/14 08:44:31;;;;;;;26.23;13.70;;;-3.30;78.90;;;;;;5038943;28;20014;-81
2020/12/14 08:46:57;;;;;;;34.47;16.27;;;-3.20;79.00;;;;;;5032989;28;20079;-80
2020/12/14 08:49:22;;;;;;;24.75;14.00;;;-3.10;79.10;;;;;;5034608;28;20034;-82
2020/12/14 08:51:49;;;;;;;25.10;12.77;;;-3.10;79.00;;;;;;5040348;28;20395;-81
2020/12/14 08:54:20;;;;;;;27.88;15.50;;;-3.00;78.90;;;;;;5041213;28;20020;-82
2020/12/14 08:56:46;;;;;;;25.75;15.75;;;-3.10;78.70;;;;;;5044076;28;20026;-80
2020/12/14 08:59:19;;;;;;;25.05;15.20;;;-3.00;78.60;;;;;;5059844;28;20089;-82
2020/12/14 09:02:04;;;;;;;28.35;15.77;;;-2.90;78.60;;;;;;5063491;28;20037;-80
2020/12/14 09:04:37;;;;;;;34.50;16.48;;;-2.80;78.70;;;;;;5047957;28;20425;-80
2020/12/14 09:07:06;;;;;;;27.23;13.13;;;-2.70;78.50;;;;;;5049194;28;20023;-81
2020/12/14 09:09:34;;;;;;;29.50;15.20;;;-2.70;77.70;;;;;;5046185;28;20033;-80
2020/12/14 09:12:01;;;;;;;27.30;17.30;;;-2.70;77.30;;;;;;5045987;28;20025;-84
2020/12/14 09:14:29;;;;;;;30.88;17.38;;;-2.70;77.30;;;;;;5051832;28;20024;-81
2020/12/14 09:17:04;;;;;;;24.70;14.63;;;-2.60;77.40;;;;;;5053097;28;20051;-83
2020/12/14 09:19:31;;;;;;;21.20;13.27;;;-2.70;76.90;;;;;;5050347;28;20024;-81
2020/12/14 09:21:57;;;;;;;28.92;15.27;;;-2.80;77.30;;;;;;5047047;28;20028;-83
2020/12/14 09:24:26;;;;;;;26.88;12.98;;;-2.70;77.50;;;;;;5047586;28;20021;-83
2020/12/14 09:26:54;;;;;;;25.02;11.82;;;-2.70;77.60;;;;;;5047864;28;20017;-83
2020/12/14 09:29:20;;;;;;;25.13;13.65;;;-2.60;77.60;;;;;;5044837;28;20025;-82
2020/12/14 09:31:49;;;;;;;26.75;13.73;;;-2.60;77.50;;;;;;5037590;28;20029;-80
2020/12/14 09:34:15;;;;;;;22.17;12.63;;;-2.70;77.50;;;;;;5038478;28;20021;-82
2020/12/14 09:36:41;;;;;;;21.20;10.82;;;-2.70;77.70;;;;;;5039450;28;20528;-80
2020/12/14 09:39:07;;;;;;;33.83;15.82;;;-2.70;77.80;;;;;;5036901;28;20029;-82
2020/12/14 09:41:33;;;;;;;26.25;14.85;;;-2.80;77.80;;;;;;5046293;28;20382;-81
2020/12/14 09:43:59;;;;;;;23.45;14.13;;;-2.70;77.80;;;;;;5033776;28;20025;-83
2020/12/14 09:46:27;;;;;;;21.15;13.55;;;-2.70;77.50;;;;;;5035422;28;20025;-82
2020/12/14 09:48:53;;;;;;;;;;;-2.80;77.00;;;;;;5047098;28;20095;-82
2020/12/14 09:51:19;;;;;;;25.05;14.82;;;-2.90;76.90;;;;;;5043587;28;19905;-83
2020/12/14 09:53:45;;;;;;;26.00;13.75;;;-3.00;76.80;;;;;;5040924;28;20018;-83
2020/12/14 09:56:11;;;;;;;31.17;15.32;;;-3.20;76.60;;;;;;5041459;28;20520;-83
2020/12/14 09:58:36;;;;;;;31.20;15.32;;;-3.20;76.90;;;;;;5043740;28;20031;-84
2020/12/14 10:01:02;;;;;;;25.67;14.90;;;-3.20;77.50;;;;;;5044998;28;20045;-82
2020/12/14 10:03:28;;;;;;;33.20;16.67;;;-3.10;77.40;;;;;;5045220;28;20061;-80
2020/12/14 10:05:54;;;;;;;29.13;16.40;;;-3.10;77.20;;;;;;5039664;28;20364;-82
2020/12/14 10:08:20;;;;;;;25.42;13.63;;;-3.10;77.10;;;;;;5039528;28;20034;-84
2020/12/14 10:10:46;;;;;;;32.10;16.90;;;-3.10;77.10;;;;;;5035778;28;20115;-81
2020/12/14 10:13:12;;;;;;;33.60;15.80;;;-3.10;77.50;;;;;;5040700;28;20079;-82
2020/12/14 10:15:37;;;;;;;26.30;14.25;;;-3.10;77.60;;;;;;5055183;28;20086;-82
2020/12/14 10:18:03;;;;;;;28.33;14.00;;;-3.20;77.10;;;;;;5055519;28;20475;-82
2020/12/14 10:20:30;;;;;;;28.75;14.77;;;-3.20;77.70;;;;;;5055327;28;20092;-83
2020/12/14 10:22:56;;;;;;;32.38;16.45;;;-3.20;77.80;;;;;;5054304;28;20024;-81
2020/12/14 10:25:24;;;;;;;27.17;14.98;;;-3.20;77.80;;;;;;5044934;28;20103;-82
2020/12/14 10:27:51;;;;;;;28.98;16.65;;;-3.10;77.60;;;;;;5047096;28;20033;-82
2020/12/14 10:30:17;;;;;;;33.92;16.75;;;-3.10;77.80;;;;;;5034260;28;20064;-81
2020/12/14 10:32:44;;;;;;;61.00;19.55;;;-3.10;77.80;;;;;;5038465;28;20055;-85
2020/12/14 10:35:10;;;;;;;28.55;17.27;;;-3.10;78.00;;;;;;5044167;28;20052;-81
2020/12/14 10:37:35;;;;;;;55.90;22.02;;;-3.10;77.90;;;;;;5054976;28;20021;-80
2020/12/14 10:40:04;;;;;;;28.27;16.35;;;-3.10;78.00;;;;;;5052743;28;20025;-82
2020/12/14 10:42:31;;;;;;;30.25;16.35;;;-3.20;78.30;;;;;;5047488;28;20029;-81
2020/12/14 10:44:58;;;;;;;36.88;17.67;;;-3.10;78.60;;;;;;5034179;28;20071;-80
2020/12/14 10:47:24;;;;;;;29.65;17.40;;;-3.10;78.80;;;;;;5033802;28;20022;-79
2020/12/14 10:49:51;;;;;;;29.17;15.32;;;-3.10;78.40;;;;;;5037783;28;20516;-81
2020/12/14 10:52:17;;;;;;;43.17;17.07;;;-3.20;78.20;;;;;;5048395;28;20158;-80
2020/12/14 10:54:42;;;;;;;39.17;19.30;;;-3.20;78.30;;;;;;5052275;28;20025;-81
2020/12/14 10:57:08;;;;;;;34.17;15.15;;;-3.30;78.40;;;;;;5045018;28;20107;-81
2020/12/14 10:59:34;;;;;;;38.75;17.58;;;-3.30;78.90;;;;;;5049249;28;20113;-84
2020/12/14 11:02:00;;;;;;;31.98;17.73;;;-3.40;79.20;;;;;;5067429;28;20025;-82
2020/12/14 11:04:26;;;;;;;36.10;16.90;;;-3.40;79.80;;;;;;5046633;28;20372;-81
2020/12/14 11:06:52;;;;;;;38.13;18.50;;;-3.40;80.10;;;;;;5040879;28;20382;-83
2020/12/14 11:09:18;;;;;;;46.42;20.90;;;-3.40;80.10;;;;;;5042717;28;20044;-82
2020/12/14 11:11:49;;;;;;;34.83;17.70;;;-3.30;80.00;;;;;;5045893;28;20063;-81
2020/12/14 11:14:15;;;;;;;44.85;18.98;;;-3.30;79.90;;;;;;5055878;28;20021;-83
2020/12/14 11:16:43;;;;;;;37.85;15.93;;;-3.20;80.00;;;;;;5053976;28;20482;-81
2020/12/14 11:19:09;;;;;;;34.53;17.63;;;-3.30;79.60;;;;;;5053833;28;20029;-81
2020/12/14 11:21:35;;;;;;;40.67;19.17;;;-3.30;79.60;;;;;;5052249;28;20036;-81
2020/12/14 11:24:01;;;;;;;32.28;17.17;;;-3.40;79.60;;;;;;5053189;28;20056;-81
2020/12/14 11:26:28;;;;;;;37.85;18.23;;;-3.40;79.70;;;;;;5054371;28;20378;-82
2020/12/14 11:28:54;;;;;;;37.22;18.52;;;-3.40;80.00;;;;;;5053215;28;20013;-82
2020/12/14 11:31:20;;;;;;;40.20;21.45;;;-3.50;79.90;;;;;;5053153;28;20066;-81
2020/12/14 11:33:46;;;;;;;36.72;17.70;;;-3.50;80.10;;;;;;5054829;28;20022;-79
2020/12/14 11:36:12;;;;;;;42.55;17.52;;;-3.50;80.30;;;;;;5051968;28;20063;-82
2020/12/14 11:38:38;;;;;;;38.60;19.42;;;-3.50;80.50;;;;;;5049422;28;20036;-80
2020/12/14 11:41:04;;;;;;;35.00;19.30;;;-3.50;80.80;;;;;;5033373;28;20032;-82
2020/12/14 11:43:30;;;;;;;49.90;19.30;;;-3.50;81.00;;;;;;5035609;28;20446;-82
2020/12/14 11:45:56;;;;;;;40.47;19.05;;;-3.50;81.10;;;;;;5043681;28;20360;-81
2020/12/14 11:48:22;;;;;;;34.63;19.67;;;-3.50;81.40;;;;;;5044823;28;20033;-83
2020/12/14 11:50:49;;;;;;;44.85;20.80;;;-3.50;81.60;;;;;;5051989;28;20068;-82
2020/12/14 11:53:15;;;;;;;36.30;18.40;;;-3.50;81.90;;;;;;5048366;28;20017;-82
2020/12/14 11:55:41;;;;;;;43.60;20.48;;;-3.60;82.20;;;;;;5045719;28;20036;-83
2020/12/14 11:58:07;;;;;;;43.08;18.92;;;-3.60;82.60;;;;;;5047918;28;20096;-83
2020/12/14 12:00:33;;;;;;;36.63;18.00;;;-3.50;82.70;;;;;;5039055;28;20018;-84
2020/12/14 12:02:59;;;;;;;50.15;23.17;;;-3.50;82.80;;;;;;5039465;28;20080;-84
2020/12/14 12:05:25;;;;;;;46.47;23.88;;;-3.50;82.90;;;;;;5044084;28;20056;-84
2020/12/14 12:07:50;;;;;;;46.33;22.40;;;-3.60;82.90;;;;;;5042798;28;20017;-82
2020/12/14 12:10:17;;;;;;;38.08;17.73;;;-3.60;83.70;;;;;;5038756;28;20363;-82
2020/12/14 12:12:43;;;;;;;38.90;19.67;;;-3.60;83.30;;;;;;5033123;28;20352;-84
2020/12/14 12:15:09;;;;;;;43.63;21.60;;;-3.60;83.40;;;;;;5050558;28;20131;-82
2020/12/14 12:17:34;;;;;;;49.78;21.98;;;-3.70;83.90;;;;;;5052374;28;20029;-81
2020/12/14 12:20:00;;;;;;;49.13;22.65;;;-3.70;83.90;;;;;;5052502;28;20405;-81
2020/12/14 12:22:26;;;;;;;49.33;22.77;;;-3.80;83.90;;;;;;5052522;28;20036;-81
2020/12/14 12:24:52;;;;;;;44.00;22.98;;;-3.80;84.40;;;;;;5053177;28;20032;-83
2020/12/14 12:27:19;;;;;;;51.08;24.23;;;-3.80;84.60;;;;;;5053535;28;20378;-82
2020/12/14 12:29:45;;;;;;;46.08;24.23;;;-3.90;84.70;;;;;;5056286;28;20102;-81
2020/12/14 12:32:10;;;;;;;52.97;25.65;;;-3.90;85.10;;;;;;5063264;28;20020;-82
2020/12/14 12:34:36;;;;;;;50.63;25.83;;;-3.90;85.20;;;;;;5064350;28;20041;-83
2020/12/14 12:37:03;;;;;;;44.90;23.77;;;-3.90;85.40;;;;;;5053147;28;20028;-81
2020/12/14 12:39:29;;;;;;;41.53;22.27;;;-3.80;85.50;;;;;;5040331;28;20022;-84